createdAt,value
2019-05-25T00:01:55.114Z,15.00
2019-05-25T00:04:31.194Z,15.00
2019-05-25T00:07:25.576Z,14.90
2019-05-25T00:10:07.914Z,14.90
2019-05-25T00:13:01.351Z,14.80
2019-05-25T00:15:43.089Z,14.80
2019-05-25T00:18:17.165Z,14.70
2019-05-25T00:20:48.298Z,14.60
2019-05-25T00:23:19.000Z,14.60
2019-05-25T00:26:02.958Z,14.60
2019-05-25T00:28:52.089Z,14.50
2019-05-25T00:31:27.399Z,14.50
2019-05-25T00:34:02.192Z,14.40
2019-05-25T00:36:57.251Z,14.30
2019-05-25T00:39:35.615Z,14.20
2019-05-25T00:42:06.198Z,14.10
2019-05-25T00:44:36.187Z,14.10
2019-05-25T00:47:06.418Z,14.10
2019-05-25T00:49:36.525Z,14.00
2019-05-25T00:52:11.215Z,13.90
2019-05-25T00:54:49.651Z,13.80
2019-05-25T00:57:23.376Z,13.80
2019-05-25T00:59:55.246Z,13.80
2019-05-25T01:02:28.302Z,13.80
2019-05-25T01:04:59.582Z,13.70
2019-05-25T01:07:30.301Z,13.60
2019-05-25T01:10:00.177Z,13.60
2019-05-25T01:12:32.658Z,13.60
2019-05-25T01:15:17.758Z,13.60
2019-05-25T01:17:48.439Z,13.50
2019-05-25T01:20:19.550Z,13.50
2019-05-25T01:22:49.520Z,13.40
2019-05-25T01:25:20.962Z,13.20
2019-05-25T01:27:52.836Z,13.40
2019-05-25T01:30:22.928Z,13.30
2019-05-25T01:32:59.351Z,13.30
2019-05-25T01:35:29.637Z,13.20
2019-05-25T01:37:59.871Z,13.20
2019-05-25T01:40:32.337Z,13.20
2019-05-25T01:43:02.118Z,13.30
2019-05-25T01:45:32.229Z,13.20
2019-05-25T01:48:02.913Z,13.20
2019-05-25T01:50:32.758Z,13.20
2019-05-25T01:53:03.073Z,13.10
2019-05-25T01:55:33.505Z,13.10
2019-05-25T01:58:03.864Z,13.00
2019-05-25T02:00:34.003Z,13.00
2019-05-25T02:03:04.553Z,13.00
2019-05-25T02:05:38.414Z,12.90
2019-05-25T02:08:09.235Z,12.90
2019-05-25T02:10:39.421Z,12.80
2019-05-25T02:13:10.498Z,12.70
2019-05-25T02:15:52.458Z,12.70
2019-05-25T02:20:59.455Z,12.60
2019-05-25T02:23:29.896Z,12.70
2019-05-25T02:26:12.838Z,12.70
2019-05-25T02:28:43.872Z,12.60
2019-05-25T02:31:14.255Z,12.60
2019-05-25T02:33:45.488Z,12.50
2019-05-25T02:36:15.487Z,12.50
2019-05-25T02:38:45.465Z,12.50
2019-05-25T02:41:15.506Z,12.30
2019-05-25T02:43:46.071Z,12.30
2019-05-25T02:46:16.356Z,12.30
2019-05-25T02:48:46.819Z,12.20
2019-05-25T02:51:17.300Z,12.10
2019-05-25T02:53:47.727Z,12.10
2019-05-25T02:56:20.895Z,12.10
2019-05-25T02:58:51.451Z,12.00
2019-05-25T03:01:21.458Z,11.90
2019-05-25T03:03:51.477Z,12.00
2019-05-25T03:06:23.027Z,11.80
2019-05-25T03:08:54.208Z,11.90
2019-05-25T03:11:24.445Z,11.70
2019-05-25T03:13:57.403Z,11.80
2019-05-25T03:16:27.988Z,11.80
2019-05-25T03:18:58.888Z,11.70
2019-05-25T03:21:28.881Z,11.70
2019-05-25T03:24:01.272Z,11.60
2019-05-25T03:26:31.709Z,11.70
2019-05-25T03:29:01.645Z,11.70
2019-05-25T03:31:31.584Z,11.70
2019-05-25T03:34:01.880Z,11.80
2019-05-25T03:36:36.065Z,11.80
2019-05-25T03:39:07.825Z,11.70
2019-05-25T03:41:37.752Z,11.70
2019-05-25T03:44:07.608Z,11.70
2019-05-25T03:46:37.434Z,11.70
2019-05-25T03:49:08.266Z,11.70
2019-05-25T03:51:38.127Z,11.70
2019-05-25T03:54:08.248Z,11.70
2019-05-25T03:56:38.211Z,11.60
2019-05-25T03:59:07.996Z,11.60
2019-05-25T04:01:40.168Z,11.60
2019-05-25T04:04:10.262Z,11.50
2019-05-25T04:06:40.987Z,11.40
2019-05-25T04:09:11.308Z,11.40
2019-05-25T04:11:41.107Z,11.30
2019-05-25T04:14:11.255Z,11.30
2019-05-25T04:16:41.244Z,11.30
2019-05-25T04:19:11.260Z,11.30
2019-05-25T04:21:41.233Z,11.20
2019-05-25T04:24:14.475Z,11.20
2019-05-25T04:26:44.295Z,11.20
2019-05-25T04:29:17.053Z,11.20
2019-05-25T04:31:47.166Z,11.20
2019-05-25T04:34:16.983Z,11.00
2019-05-25T04:36:47.257Z,11.10
2019-05-25T04:39:17.602Z,11.10
2019-05-25T04:41:47.423Z,11.20
2019-05-25T04:44:17.284Z,11.30
2019-05-25T04:46:47.417Z,11.50
2019-05-25T04:49:17.380Z,11.50
2019-05-25T04:51:47.832Z,11.50
2019-05-25T04:54:18.706Z,11.50
2019-05-25T04:56:48.604Z,11.40
2019-05-25T04:59:18.288Z,11.40
2019-05-25T05:01:48.142Z,11.40
2019-05-25T05:04:18.324Z,11.40
2019-05-25T05:06:48.208Z,11.50
2019-05-25T05:09:18.116Z,11.50
2019-05-25T05:11:47.903Z,11.30
2019-05-25T05:14:17.845Z,11.30
2019-05-25T05:16:47.638Z,11.40
2019-05-25T05:19:17.526Z,11.40
2019-05-25T05:21:47.485Z,11.30
2019-05-25T05:24:17.611Z,11.40
2019-05-25T05:26:55.696Z,11.50
2019-05-25T05:29:20.630Z,11.50
2019-05-25T05:31:51.275Z,11.60
2019-05-25T05:34:21.106Z,11.70
2019-05-25T05:36:51.178Z,11.80
2019-05-25T05:39:21.267Z,11.90
2019-05-25T05:41:55.681Z,12.00
2019-05-25T05:44:27.174Z,12.00
2019-05-25T05:46:59.700Z,12.10
2019-05-25T05:49:34.131Z,12.20
2019-05-25T05:52:04.591Z,12.20
2019-05-25T05:54:34.687Z,12.30
2019-05-25T05:57:12.208Z,12.30
2019-05-25T05:59:38.782Z,12.50
2019-05-25T06:02:11.803Z,12.60
2019-05-25T06:04:43.079Z,12.60
2019-05-25T06:07:13.385Z,12.50
2019-05-25T06:09:43.146Z,12.60
2019-05-25T06:12:13.403Z,13.00
2019-05-25T06:14:43.373Z,13.70
2019-05-25T06:17:13.883Z,15.00
2019-05-25T06:19:46.508Z,15.70
2019-05-25T06:22:16.308Z,15.60
2019-05-25T06:24:46.136Z,15.30
2019-05-25T06:27:27.192Z,15.50
2019-05-25T06:29:47.571Z,16.10
2019-05-25T06:32:19.599Z,16.80
2019-05-25T06:34:49.625Z,17.50
2019-05-25T06:37:21.660Z,19.00
2019-05-25T06:39:52.258Z,19.40
2019-05-25T06:42:22.356Z,19.50
2019-05-25T06:44:55.312Z,19.40
2019-05-25T06:47:25.451Z,19.60
2019-05-25T06:49:56.230Z,19.60
2019-05-25T06:52:26.722Z,20.60
2019-05-25T06:54:58.274Z,20.50
2019-05-25T06:57:42.076Z,19.70
2019-05-25T07:00:01.022Z,19.40
2019-05-25T07:02:30.833Z,19.70
2019-05-25T07:05:02.140Z,19.80
2019-05-25T07:07:32.321Z,19.30
2019-05-25T07:10:02.241Z,18.90
2019-05-25T07:12:33.313Z,18.90
2019-05-25T07:15:06.651Z,18.50
2019-05-25T07:17:37.180Z,18.20
2019-05-25T07:20:08.660Z,17.80
2019-05-25T07:22:51.046Z,18.70
2019-05-25T07:25:21.661Z,20.00
2019-05-25T07:27:59.907Z,22.10
2019-05-25T07:30:23.757Z,21.80
2019-05-25T07:32:54.174Z,21.00
2019-05-25T07:35:33.242Z,20.00
2019-05-25T07:38:05.318Z,19.10
2019-05-25T07:40:38.940Z,18.00
2019-05-25T07:43:30.763Z,18.80
2019-05-25T07:46:08.815Z,19.70
2019-05-25T07:48:46.088Z,19.60
2019-05-25T07:51:32.070Z,18.60
2019-05-25T07:54:04.266Z,17.50
2019-05-25T07:56:58.913Z,17.50
2019-05-25T07:59:29.445Z,18.00
2019-05-25T08:01:59.406Z,18.60
2019-05-25T08:04:29.404Z,18.90
2019-05-25T08:07:05.118Z,18.50
2019-05-25T08:09:36.787Z,18.30
2019-05-25T08:12:07.254Z,18.30
2019-05-25T08:14:44.924Z,18.70
2019-05-25T08:17:35.966Z,18.80
2019-05-25T08:20:06.557Z,19.00
2019-05-25T08:22:55.445Z,19.80
2019-05-25T08:25:38.486Z,20.40
2019-05-25T08:28:31.773Z,20.60
2019-05-25T08:30:53.356Z,19.60
2019-05-25T08:33:28.327Z,18.60
2019-05-25T08:36:08.734Z,17.90
2019-05-25T08:38:41.134Z,18.20
2019-05-25T08:41:12.761Z,18.40
2019-05-25T08:43:47.269Z,19.50
2019-05-25T08:46:24.932Z,19.80
2019-05-25T08:48:57.716Z,19.80
2019-05-25T08:51:35.524Z,20.60
2019-05-25T08:54:05.489Z,21.30
2019-05-25T08:56:37.466Z,21.30
2019-05-25T08:59:11.265Z,20.10
2019-05-25T09:01:50.008Z,20.00
2019-05-25T09:04:30.052Z,19.30
2019-05-25T09:07:08.338Z,19.40
2019-05-25T09:09:43.467Z,20.60
2019-05-25T09:12:15.820Z,21.30
2019-05-25T09:14:45.799Z,21.30
2019-05-25T09:17:17.960Z,22.30
2019-05-25T09:19:53.828Z,23.20
2019-05-25T09:22:27.160Z,24.70
2019-05-25T09:25:11.268Z,25.20
2019-05-25T09:27:41.759Z,25.60
2019-05-25T09:30:13.375Z,24.40
2019-05-25T09:32:43.504Z,22.60
2019-05-25T09:35:17.654Z,23.60
2019-05-25T09:37:47.616Z,25.30
2019-05-25T09:40:33.774Z,24.00
2019-05-25T09:43:33.925Z,22.80
2019-05-25T09:46:20.442Z,22.60
2019-05-25T09:48:52.109Z,24.30
2019-05-25T09:51:22.290Z,25.50
2019-05-25T09:53:52.485Z,25.20
2019-05-25T09:56:25.787Z,25.40
2019-05-25T09:59:19.306Z,24.20
2019-05-25T10:01:46.750Z,24.50
2019-05-25T10:04:21.240Z,25.20
2019-05-25T10:06:55.817Z,24.50
2019-05-25T10:09:47.077Z,24.30
2019-05-25T10:12:26.303Z,23.90
2019-05-25T10:15:02.428Z,22.40
2019-05-25T10:17:32.987Z,22.90
2019-05-25T10:20:09.926Z,23.50
2019-05-25T10:22:43.269Z,23.60
2019-05-25T10:25:24.565Z,23.20
2019-05-25T10:28:05.276Z,24.20
2019-05-25T10:30:35.540Z,25.00
2019-05-25T10:33:06.418Z,25.70
2019-05-25T10:35:36.711Z,26.40
2019-05-25T10:38:06.788Z,25.90
2019-05-25T10:40:51.577Z,25.10
2019-05-25T10:44:11.228Z,25.80
2019-05-25T10:46:41.725Z,25.80
2019-05-25T10:49:16.674Z,27.00
2019-05-25T10:51:46.841Z,27.10
2019-05-25T10:54:17.283Z,26.90
2019-05-25T10:56:48.449Z,26.60
2019-05-25T10:59:25.013Z,26.90
2019-05-25T11:02:11.307Z,28.30
2019-05-25T11:04:44.500Z,29.30
2019-05-25T11:07:22.464Z,29.50
2019-05-25T11:09:52.615Z,28.70
2019-05-25T11:12:26.132Z,29.20
2019-05-25T11:14:56.572Z,29.60
2019-05-25T11:17:29.168Z,28.60
2019-05-25T11:20:03.489Z,28.10
2019-05-25T11:22:38.333Z,28.80
2019-05-25T11:25:12.088Z,29.60
2019-05-25T11:27:43.264Z,28.30
2019-05-25T11:30:17.903Z,27.00
2019-05-25T11:32:51.934Z,26.80
2019-05-25T11:35:33.367Z,26.50
2019-05-25T11:38:29.335Z,25.80
2019-05-25T11:41:10.153Z,25.60
2019-05-25T11:43:43.646Z,26.20
2019-05-25T11:46:19.052Z,27.10
2019-05-25T11:48:54.048Z,27.20
2019-05-25T11:51:43.509Z,26.90
2019-05-25T11:54:53.093Z,26.30
2019-05-25T11:57:59.805Z,25.90
2019-05-25T12:00:30.545Z,25.30
2019-05-25T12:03:02.851Z,26.10
2019-05-25T12:05:34.906Z,25.50
2019-05-25T12:08:05.463Z,25.30
2019-05-25T12:10:35.861Z,26.30
2019-05-25T12:13:09.102Z,27.10
2019-05-25T12:15:39.255Z,26.10
2019-05-25T12:18:12.751Z,25.60
2019-05-25T12:20:43.043Z,26.20
2019-05-25T12:23:17.900Z,25.60
2019-05-25T12:25:51.216Z,25.00
2019-05-25T12:28:25.738Z,24.50
2019-05-25T12:30:56.370Z,25.10
2019-05-25T12:33:26.819Z,25.60
2019-05-25T12:35:59.252Z,24.80
2019-05-25T12:38:29.802Z,25.60
2019-05-25T12:41:00.252Z,26.70
2019-05-25T12:43:33.336Z,26.50
2019-05-25T12:46:15.876Z,26.40
2019-05-25T12:48:41.565Z,26.90
2019-05-25T12:51:22.804Z,27.00
2019-05-25T12:53:57.236Z,27.30
2019-05-25T12:56:28.310Z,27.50
2019-05-25T12:59:10.242Z,27.80
2019-05-25T13:01:40.239Z,26.90
2019-05-25T13:04:10.412Z,26.30
2019-05-25T13:06:40.655Z,27.20
2019-05-25T13:09:27.270Z,27.30
2019-05-25T13:12:01.797Z,27.00
2019-05-25T13:14:37.257Z,26.80
2019-05-25T13:17:07.270Z,27.20
2019-05-25T13:19:46.360Z,26.50
2019-05-25T13:22:19.532Z,25.50
2019-05-25T13:24:50.120Z,25.40
2019-05-25T13:27:27.156Z,25.80
2019-05-25T13:29:58.286Z,25.20
2019-05-25T13:32:33.450Z,24.10
2019-05-25T13:35:05.563Z,23.00
2019-05-25T13:37:35.487Z,22.90
2019-05-25T13:40:08.110Z,22.60
2019-05-25T13:42:46.750Z,22.30
2019-05-25T13:45:23.854Z,22.40
2019-05-25T13:47:57.952Z,22.90
2019-05-25T13:50:28.817Z,22.90
2019-05-25T13:53:03.308Z,22.50
2019-05-25T13:55:35.325Z,22.20
2019-05-25T13:58:07.152Z,22.20
2019-05-25T14:00:44.472Z,21.90
2019-05-25T14:03:14.722Z,22.10
2019-05-25T14:05:46.433Z,22.20
2019-05-25T14:08:20.368Z,22.30
2019-05-25T14:11:03.655Z,22.40
2019-05-25T14:13:34.779Z,22.50
2019-05-25T14:16:10.554Z,22.20
2019-05-25T14:18:42.008Z,21.90
2019-05-25T14:21:15.278Z,22.00
2019-05-25T14:23:49.194Z,21.80
2019-05-25T14:26:22.387Z,21.50
2019-05-25T14:29:07.571Z,21.40
2019-05-25T14:31:45.660Z,21.40
2019-05-25T14:34:10.032Z,21.50
2019-05-25T14:36:40.388Z,21.80
2019-05-25T14:39:13.951Z,22.20
2019-05-25T14:41:45.911Z,22.20
2019-05-25T14:44:16.208Z,22.00
2019-05-25T14:46:47.622Z,22.00
2019-05-25T14:49:18.498Z,22.00
2019-05-25T14:52:00.935Z,22.00
2019-05-25T14:54:49.867Z,22.20
2019-05-25T14:57:23.834Z,22.10
2019-05-25T14:59:54.166Z,21.80
2019-05-25T15:02:37.547Z,21.60
2019-05-25T15:05:09.786Z,21.80
2019-05-25T15:07:40.972Z,21.70
2019-05-25T15:10:12.319Z,21.70
2019-05-25T15:12:43.792Z,21.80
2019-05-25T15:15:24.250Z,22.10
2019-05-25T15:17:54.765Z,22.10
2019-05-25T15:20:29.484Z,22.10
2019-05-25T15:23:07.191Z,22.30
2019-05-25T15:25:40.545Z,22.20
2019-05-25T15:28:12.196Z,22.20
2019-05-25T15:30:48.864Z,22.30
2019-05-25T15:33:23.153Z,22.30
2019-05-25T15:35:56.455Z,22.30
2019-05-25T15:38:37.088Z,22.30
2019-05-25T15:41:15.136Z,22.50
2019-05-25T15:43:52.767Z,22.50
2019-05-25T15:46:24.380Z,22.70
2019-05-25T15:48:59.151Z,22.70
2019-05-25T15:51:32.341Z,22.10
2019-05-25T15:54:03.436Z,21.80
2019-05-25T15:56:37.496Z,21.90
2019-05-25T15:59:11.411Z,21.90
2019-05-25T16:01:43.044Z,21.80
2019-05-25T16:04:15.207Z,21.60
2019-05-25T16:06:46.995Z,21.50
2019-05-25T16:09:39.456Z,21.50
2019-05-25T16:12:10.010Z,21.10
2019-05-25T16:14:41.280Z,20.70
2019-05-25T16:17:12.168Z,20.40
2019-05-25T16:19:46.614Z,20.30
2019-05-25T16:22:20.715Z,20.10
2019-05-25T16:24:51.740Z,20.20
2019-05-25T16:27:26.109Z,20.40
2019-05-25T16:30:01.475Z,20.60
2019-05-25T16:32:32.239Z,20.60
2019-05-25T16:35:07.413Z,20.80
2019-05-25T16:37:42.014Z,20.90
2019-05-25T16:40:16.240Z,21.00
2019-05-25T16:42:47.181Z,21.20
2019-05-25T16:45:20.797Z,20.80
2019-05-25T16:47:53.856Z,20.80
2019-05-25T16:50:57.895Z,20.80
2019-05-25T16:53:29.285Z,20.90
2019-05-25T16:56:05.481Z,20.80
2019-05-25T16:58:46.926Z,20.60
2019-05-25T17:01:25.486Z,20.70
2019-05-25T17:03:59.414Z,20.90
2019-05-25T17:06:37.653Z,21.00
2019-05-25T17:09:13.168Z,20.80
2019-05-25T17:11:43.565Z,20.70
2019-05-25T17:14:17.880Z,20.70
2019-05-25T17:16:51.519Z,20.60
2019-05-25T17:19:38.307Z,20.70
2019-05-25T17:22:12.840Z,20.70
2019-05-25T17:24:50.696Z,20.50
2019-05-25T17:27:34.055Z,20.60
2019-05-25T17:30:12.149Z,20.50
2019-05-25T17:32:43.196Z,20.60
2019-05-25T17:35:16.021Z,20.50
2019-05-25T17:37:54.264Z,20.70
2019-05-25T17:40:32.105Z,20.60
2019-05-25T17:43:36.784Z,20.60
2019-05-25T17:46:09.971Z,20.50
2019-05-25T17:48:47.257Z,20.50
2019-05-25T17:51:29.149Z,20.50
2019-05-25T17:54:02.789Z,20.40
2019-05-25T17:56:33.499Z,20.40
2019-05-25T17:59:08.295Z,20.30
2019-05-25T18:02:00.385Z,20.30
2019-05-25T18:04:50.742Z,20.30
2019-05-25T18:07:29.757Z,20.30
2019-05-25T18:10:01.568Z,20.30
2019-05-25T18:12:48.240Z,20.20
2019-05-25T18:15:19.386Z,20.20
2019-05-25T18:17:54.772Z,20.20
2019-05-25T18:20:31.926Z,20.20
2019-05-25T18:23:05.344Z,20.00
2019-05-25T18:25:39.990Z,19.90
2019-05-25T18:28:15.631Z,19.60
2019-05-25T18:30:58.789Z,19.60
2019-05-25T18:33:41.300Z,19.50
2019-05-25T18:36:45.080Z,19.70
2019-05-25T18:39:24.376Z,19.70
2019-05-25T18:41:55.267Z,19.60
2019-05-25T18:44:50.971Z,19.50
2019-05-25T18:47:23.685Z,19.50
2019-05-25T18:50:08.479Z,19.70
2019-05-25T18:52:55.096Z,19.80
2019-05-25T18:55:54.894Z,20.10
2019-05-25T18:58:31.730Z,20.20
2019-05-25T19:01:10.869Z,20.30
2019-05-25T19:03:52.186Z,20.30
2019-05-25T19:06:36.885Z,20.40
2019-05-25T19:09:14.616Z,20.40
2019-05-25T19:11:55.476Z,20.40
2019-05-25T19:14:33.972Z,20.30
2019-05-25T19:17:06.721Z,20.20
2019-05-25T19:19:40.783Z,20.20
2019-05-25T19:22:24.144Z,20.10
2019-05-25T19:24:55.793Z,19.80
2019-05-25T19:27:33.638Z,19.70
2019-05-25T19:30:17.476Z,19.70
2019-05-25T19:33:08.598Z,19.90
2019-05-25T19:35:42.396Z,19.80
2019-05-25T19:38:26.818Z,19.70
2019-05-25T19:41:07.699Z,19.70
2019-05-25T19:43:47.482Z,19.50
2019-05-25T19:46:26.400Z,19.40
2019-05-25T19:49:05.802Z,19.40
2019-05-25T19:51:38.957Z,19.50
2019-05-25T19:54:14.938Z,19.40
2019-05-25T19:57:11.894Z,19.50
2019-05-25T19:59:43.184Z,19.50
2019-05-25T20:02:17.176Z,19.50
2019-05-25T20:04:55.356Z,19.40
2019-05-25T20:07:28.711Z,19.40
2019-05-25T20:10:00.325Z,19.30
2019-05-25T20:12:34.157Z,19.30
2019-05-25T20:18:03.749Z,19.20
2019-05-25T20:20:44.169Z,19.10
2019-05-25T20:23:14.938Z,19.30
2019-05-25T20:25:52.326Z,19.40
2019-05-25T20:28:24.037Z,19.40
2019-05-25T20:30:55.782Z,19.20
2019-05-25T20:33:35.314Z,19.20
2019-05-25T20:36:15.359Z,19.20
2019-05-25T20:38:59.150Z,19.10
2019-05-25T20:41:42.816Z,18.90
2019-05-25T20:44:28.720Z,18.90
2019-05-25T20:47:20.461Z,18.90
2019-05-25T20:50:07.264Z,18.70
2019-05-25T20:52:42.420Z,18.70
2019-05-25T20:55:25.593Z,18.70
2019-05-25T20:58:23.225Z,18.70
2019-05-25T21:01:17.594Z,18.60
2019-05-25T21:04:06.792Z,18.70
2019-05-25T21:06:37.661Z,18.70
2019-05-25T21:09:27.244Z,18.60
2019-05-25T21:12:07.560Z,18.60
2019-05-25T21:15:26.662Z,18.30
2019-05-25T21:18:01.421Z,18.10
2019-05-25T21:20:53.639Z,18.20
2019-05-25T21:23:57.017Z,18.20
2019-05-25T21:27:02.110Z,18.20
2019-05-25T21:29:44.626Z,18.10
2019-05-25T21:32:23.533Z,18.00
2019-05-25T21:35:04.708Z,17.90
2019-05-25T21:37:45.647Z,17.70
2019-05-25T21:40:21.721Z,17.70
2019-05-25T21:42:57.645Z,17.70
2019-05-25T21:45:36.172Z,17.60
2019-05-25T21:48:13.359Z,17.70
2019-05-25T21:50:51.521Z,17.60
2019-05-25T21:53:35.788Z,17.60
2019-05-25T21:56:20.956Z,17.40
2019-05-25T21:59:03.785Z,17.40
2019-05-25T22:01:54.687Z,17.40
2019-05-25T22:04:30.521Z,17.40
2019-05-25T22:07:08.953Z,17.30
2019-05-25T22:09:49.955Z,17.30
2019-05-25T22:12:28.293Z,17.30
2019-05-25T22:15:04.605Z,17.30
2019-05-25T22:17:46.014Z,17.20
2019-05-25T22:20:22.661Z,17.20
2019-05-25T22:23:06.612Z,17.20
2019-05-25T22:25:44.268Z,17.20
2019-05-25T22:28:19.722Z,17.10
2019-05-25T22:30:56.510Z,17.10
2019-05-25T22:33:35.757Z,17.10
2019-05-25T22:36:11.192Z,17.10
2019-05-25T22:39:03.577Z,17.00
2019-05-25T22:41:36.338Z,16.90
2019-05-25T22:44:09.012Z,17.00
2019-05-25T22:46:52.164Z,16.80
2019-05-25T22:49:27.954Z,16.70
2019-05-25T22:52:00.280Z,16.50
2019-05-25T22:54:33.807Z,16.50
2019-05-25T22:57:09.305Z,16.40
2019-05-25T23:02:24.551Z,16.30
2019-05-25T23:04:56.884Z,16.20
2019-05-25T23:07:30.230Z,16.20
2019-05-25T23:10:05.385Z,16.10
2019-05-25T23:12:44.720Z,16.10
2019-05-25T23:15:16.836Z,16.00
2019-05-25T23:18:20.654Z,15.90
2019-05-25T23:21:03.894Z,15.80
2019-05-25T23:23:37.324Z,15.60
2019-05-25T23:26:09.686Z,15.60
2019-05-25T23:28:47.835Z,15.60
2019-05-25T23:34:18.423Z,15.60
2019-05-25T23:36:54.304Z,15.50
2019-05-25T23:39:48.609Z,15.40
2019-05-25T23:42:43.275Z,15.40
2019-05-25T23:45:19.053Z,15.50
2019-05-25T23:48:04.802Z,15.50
2019-05-25T23:50:36.604Z,15.60
2019-05-25T23:53:48.753Z,15.60
2019-05-25T23:56:22.219Z,15.50
2019-05-25T23:58:59.765Z,15.40
